sensor_id;sensor_type;location;lat;lon;timestamp;pressure;altitude;pressure_sealevel;temperature;humidity
12795;BME280;6461;42.666;23.296;2022-08-19T00:01:31;94436.50;;;25.77;61.39
12795;BME280;6461;42.666;23.296;2022-08-19T00:04:01;94433.03;;;25.76;60.34
12795;BME280;6461;42.666;23.296;2022-08-19T00:06:28;94434.97;;;25.72;60.39
12795;BME280;6461;42.666;23.296;2022-08-19T00:08:55;94430.34;;;25.73;60.70
12795;BME280;6461;42.666;23.296;2022-08-19T00:11:22;94426.53;;;25.70;61.47
12795;BME280;6461;42.666;23.296;2022-08-19T00:13:49;94430.75;;;25.68;61.10
12795;BME280;6461;42.666;23.296;2022-08-19T00:16:16;94435.34;;;25.67;62.17
12795;BME280;6461;42.666;23.296;2022-08-19T00:18:43;94443.81;;;25.66;62.80
12795;BME280;6461;42.666;23.296;2022-08-19T00:21:11;94439.19;;;25.63;63.34
12795;BME280;6461;42.666;23.296;2022-08-19T00:23:38;94449.22;;;25.55;63.82
12795;BME280;6461;42.666;23.296;2022-08-19T00:26:05;94446.91;;;25.50;63.93
12795;BME280;6461;42.666;23.296;2022-08-19T00:28:32;94451.50;;;25.53;63.40
12795;BME280;6461;42.666;23.296;2022-08-19T00:31:01;94453.03;;;25.54;65.59
12795;BME280;6461;42.666;23.296;2022-08-19T00:33:28;94449.56;;;25.54;65.01
12795;BME280;6461;42.666;23.296;2022-08-19T00:35:57;94437.66;;;25.51;64.82
12795;BME280;6461;42.666;23.296;2022-08-19T00:38:25;94441.13;;;25.52;66.23
12795;BME280;6461;42.666;23.296;2022-08-19T00:40:52;94445.75;;;25.48;65.90
12795;BME280;6461;42.666;23.296;2022-08-19T00:43:19;94433.81;;;25.35;65.95
12795;BME280;6461;42.666;23.296;2022-08-19T00:45:46;94428.06;;;25.40;65.39
12795;BME280;6461;42.666;23.296;2022-08-19T00:48:12;94431.94;;;25.42;65.99
12795;BME280;6461;42.666;23.296;2022-08-19T00:50:39;94433.44;;;25.40;66.05
12795;BME280;6461;42.666;23.296;2022-08-19T00:53:08;94433.81;;;25.35;66.42
12795;BME280;6461;42.666;23.296;2022-08-19T00:55:37;94431.91;;;25.28;66.74
12795;BME280;6461;42.666;23.296;2022-08-19T00:58:05;94437.28;;;25.21;65.89
12795;BME280;6461;42.666;23.296;2022-08-19T01:00:33;94438.44;;;25.17;65.76
12795;BME280;6461;42.666;23.296;2022-08-19T01:03:01;94435.00;;;25.13;65.93
12795;BME280;6461;42.666;23.296;2022-08-19T01:05:28;94437.66;;;25.09;66.30
12795;BME280;6461;42.666;23.296;2022-08-19T01:07:56;94434.19;;;25.05;67.44
12795;BME280;6461;42.666;23.296;2022-08-19T01:10:24;94441.09;;;25.02;67.52
12795;BME280;6461;42.666;23.296;2022-08-19T01:12:52;94431.50;;;24.94;68.06
12795;BME280;6461;42.666;23.296;2022-08-19T01:15:23;94428.06;;;24.90;68.50
12795;BME280;6461;42.666;23.296;2022-08-19T01:17:51;94430.72;;;24.87;67.53
12795;BME280;6461;42.666;23.296;2022-08-19T01:20:20;94432.66;;;24.86;68.12
12795;BME280;6461;42.666;23.296;2022-08-19T01:22:49;94426.53;;;24.82;68.07
12795;BME280;6461;42.666;23.296;2022-08-19T01:25:21;94421.13;;;24.79;68.69
12795;BME280;6461;42.666;23.296;2022-08-19T01:27:49;94426.88;;;24.77;68.96
12795;BME280;6461;42.666;23.296;2022-08-19T01:30:18;94414.22;;;24.74;67.93
12795;BME280;6461;42.666;23.296;2022-08-19T01:32:45;94434.91;;;24.70;68.32
12795;BME280;6461;42.666;23.296;2022-08-19T01:35:12;94437.97;;;24.69;68.17
12795;BME280;6461;42.666;23.296;2022-08-19T01:37:42;94436.03;;;24.66;68.54
12795;BME280;6461;42.666;23.296;2022-08-19T01:40:11;94433.75;;;24.61;69.01
12795;BME280;6461;42.666;23.296;2022-08-19T01:42:38;94436.78;;;24.59;69.25
12795;BME280;6461;42.666;23.296;2022-08-19T01:45:05;94433.31;;;24.55;68.09
12795;BME280;6461;42.666;23.296;2022-08-19T01:47:33;94439.84;;;24.54;68.68
12795;BME280;6461;42.666;23.296;2022-08-19T01:49:59;94432.94;;;24.50;69.11
12795;BME280;6461;42.666;23.296;2022-08-19T01:52:26;94429.47;;;24.49;68.27
12795;BME280;6461;42.666;23.296;2022-08-19T01:54:53;94435.59;;;24.46;69.11
12795;BME280;6461;42.666;23.296;2022-08-19T01:57:20;94431.78;;;24.44;69.78
12795;BME280;6461;42.666;23.296;2022-08-19T01:59:47;94435.59;;;24.39;69.89
12795;BME280;6461;42.666;23.296;2022-08-19T02:02:15;94434.03;;;24.34;68.87
12795;BME280;6461;42.666;23.296;2022-08-19T02:04:41;94437.09;;;24.29;68.74
12795;BME280;6461;42.666;23.296;2022-08-19T02:07:08;94443.22;;;24.30;69.03
12795;BME280;6461;42.666;23.296;2022-08-19T02:09:35;94443.97;;;24.23;71.16
12795;BME280;6461;42.666;23.296;2022-08-19T02:12:02;94434.41;;;24.26;71.02
12795;BME280;6461;42.666;23.296;2022-08-19T02:14:30;94437.09;;;24.26;71.35
12795;BME280;6461;42.666;23.296;2022-08-19T02:16:56;94434.00;;;24.24;71.61
12795;BME280;6461;42.666;23.296;2022-08-19T02:19:23;94434.38;;;24.22;71.66
12795;BME280;6461;42.666;23.296;2022-08-19T02:21:49;94429.78;;;24.23;70.98
12795;BME280;6461;42.666;23.296;2022-08-19T02:24:16;94433.22;;;24.23;71.00
12795;BME280;6461;42.666;23.296;2022-08-19T02:26:43;94434.75;;;24.17;72.01
12795;BME280;6461;42.666;23.296;2022-08-19T02:29:09;94435.13;;;24.19;71.39
12795;BME280;6461;42.666;23.296;2022-08-19T02:31:37;94434.38;;;24.19;71.78
12795;BME280;6461;42.666;23.296;2022-08-19T02:34:04;94428.59;;;24.17;71.65
12795;BME280;6461;42.666;23.296;2022-08-19T02:36:30;94430.13;;;24.11;71.86
12795;BME280;6461;42.666;23.296;2022-08-19T02:38:57;94433.97;;;24.13;73.28
12795;BME280;6461;42.666;23.296;2022-08-19T02:41:23;94434.31;;;24.12;73.60
12795;BME280;6461;42.666;23.296;2022-08-19T02:43:50;94435.84;;;24.06;73.82
12795;BME280;6461;42.666;23.296;2022-08-19T02:46:18;94431.97;;;24.00;74.50
12795;BME280;6461;42.666;23.296;2022-08-19T02:48:48;94441.50;;;23.94;74.92
12795;BME280;6461;42.666;23.296;2022-08-19T02:51:18;94438.41;;;23.88;74.89
12795;BME280;6461;42.666;23.296;2022-08-19T02:53:45;94443.38;;;23.83;74.04
12795;BME280;6461;42.666;23.296;2022-08-19T02:56:12;94446.78;;;23.76;74.13
12795;BME280;6461;42.666;23.296;2022-08-19T02:58:39;94453.25;;;23.72;73.80
12795;BME280;6461;42.666;23.296;2022-08-19T03:01:06;94453.59;;;23.67;73.78
12795;BME280;6461;42.666;23.296;2022-08-19T03:03:33;94453.97;;;23.61;74.47
12795;BME280;6461;42.666;23.296;2022-08-19T03:06:09;94458.16;;;23.59;74.42
12795;BME280;6461;42.666;23.296;2022-08-19T03:08:36;94444.34;;;23.53;74.56
12795;BME280;6461;42.666;23.296;2022-08-19T03:11:03;94445.81;;;23.47;74.79
12795;BME280;6461;42.666;23.296;2022-08-19T03:13:30;94443.53;;;23.46;75.09
12795;BME280;6461;42.666;23.296;2022-08-19T03:15:56;94440.81;;;23.42;75.15
12795;BME280;6461;42.666;23.296;2022-08-19T03:18:23;94443.09;;;23.40;75.19
12795;BME280;6461;42.666;23.296;2022-08-19T03:20:50;94444.63;;;23.41;75.71
12795;BME280;6461;42.666;23.296;2022-08-19T03:23:19;94435.47;;;23.42;76.47
12795;BME280;6461;42.666;23.296;2022-08-19T03:25:47;94440.81;;;23.42;76.06
12795;BME280;6461;42.666;23.296;2022-08-19T03:28:14;94441.94;;;23.38;76.73
12795;BME280;6461;42.666;23.296;2022-08-19T03:30:42;94440.78;;;23.39;76.43
12795;BME280;6461;42.666;23.296;2022-08-19T03:33:09;94437.34;;;23.38;76.56
12795;BME280;6461;42.666;23.296;2022-08-19T03:35:36;94443.84;;;23.37;77.39
12795;BME280;6461;42.666;23.296;2022-08-19T03:38:03;94442.63;;;23.31;77.51
12795;BME280;6461;42.666;23.296;2022-08-19T03:40:32;94447.63;;;23.33;77.86
12795;BME280;6461;42.666;23.296;2022-08-19T03:43:00;94443.81;;;23.34;77.39
12795;BME280;6461;42.666;23.296;2022-08-19T03:45:27;94453.38;;;23.35;77.24
12795;BME280;6461;42.666;23.296;2022-08-19T03:47:54;94455.28;;;23.34;77.56
12795;BME280;6461;42.666;23.296;2022-08-19T03:50:21;94464.88;;;23.35;78.71
12795;BME280;6461;42.666;23.296;2022-08-19T03:52:48;94461.03;;;23.33;79.65
12795;BME280;6461;42.666;23.296;2022-08-19T03:55:15;94466.34;;;23.29;79.72
12795;BME280;6461;42.666;23.296;2022-08-19T03:57:43;94473.56;;;23.25;79.53
12795;BME280;6461;42.666;23.296;2022-08-19T04:00:11;94474.63;;;23.17;78.99
12795;BME280;6461;42.666;23.296;2022-08-19T04:02:38;94472.81;;;23.28;79.15
12795;BME280;6461;42.666;23.296;2022-08-19T04:05:05;94474.47;;;23.36;80.47
12795;BME280;6461;42.666;23.296;2022-08-19T04:07:33;94476.00;;;23.37;78.88
12795;BME280;6461;42.666;23.296;2022-08-19T04:10:00;94485.19;;;23.40;79.24
12795;BME280;6461;42.666;23.296;2022-08-19T04:12:27;94479.84;;;23.40;80.77
12795;BME280;6461;42.666;23.296;2022-08-19T04:14:55;94482.53;;;23.43;79.55
12795;BME280;6461;42.666;23.296;2022-08-19T04:17:22;94482.19;;;23.45;79.31
12795;BME280;6461;42.666;23.296;2022-08-19T04:19:48;94480.66;;;23.47;79.70
12795;BME280;6461;42.666;23.296;2022-08-19T04:22:15;94482.22;;;23.48;79.08
12795;BME280;6461;42.666;23.296;2022-08-19T04:24:41;94488.34;;;23.49;79.11
12795;BME280;6461;42.666;23.296;2022-08-19T04:27:08;94480.69;;;23.51;79.10
12795;BME280;6461;42.666;23.296;2022-08-19T04:29:35;94492.59;;;23.53;78.69
12795;BME280;6461;42.666;23.296;2022-08-19T04:32:06;94489.53;;;23.58;78.12
12795;BME280;6461;42.666;23.296;2022-08-19T04:34:32;94481.16;;;23.60;77.64
12795;BME280;6461;42.666;23.296;2022-08-19T04:36:59;94490.72;;;23.61;77.80
12795;BME280;6461;42.666;23.296;2022-08-19T04:39:27;94490.72;;;23.64;78.43
12795;BME280;6461;42.666;23.296;2022-08-19T04:42:14;94483.84;;;23.67;78.19
12795;BME280;6461;42.666;23.296;2022-08-19T04:44:59;94481.63;;;23.73;77.90
12795;BME280;6461;42.666;23.296;2022-08-19T04:47:29;94489.28;;;23.74;76.40
12795;BME280;6461;42.666;23.296;2022-08-19T04:49:56;94489.66;;;23.76;76.37
12795;BME280;6461;42.666;23.296;2022-08-19T04:52:22;94487.75;;;23.77;75.52
12795;BME280;6461;42.666;23.296;2022-08-19T04:54:49;94487.78;;;23.80;74.57
12795;BME280;6461;42.666;23.296;2022-08-19T04:57:15;94492.41;;;23.83;74.89
12795;BME280;6461;42.666;23.296;2022-08-19T04:59:42;94494.31;;;23.86;75.33
12795;BME280;6461;42.666;23.296;2022-08-19T05:02:09;94495.81;;;23.77;75.97
12795;BME280;6461;42.666;23.296;2022-08-19T05:04:37;94492.28;;;23.66;76.88
12795;BME280;6461;42.666;23.296;2022-08-19T05:07:04;94496.25;;;23.86;76.21
12795;BME280;6461;42.666;23.296;2022-08-19T05:09:31;94493.25;;;24.01;74.75
12795;BME280;6461;42.666;23.296;2022-08-19T05:11:57;94495.63;;;24.10;74.02
12795;BME280;6461;42.666;23.296;2022-08-19T05:14:25;94495.28;;;24.15;72.66
12795;BME280;6461;42.666;23.296;2022-08-19T05:16:51;94503.72;;;24.20;72.11
12795;BME280;6461;42.666;23.296;2022-08-19T05:19:18;94500.31;;;24.27;72.83
12795;BME280;6461;42.666;23.296;2022-08-19T05:22:03;94493.81;;;24.31;71.61
12795;BME280;6461;42.666;23.296;2022-08-19T05:24:50;94498.84;;;24.36;71.89
12795;BME280;6461;42.666;23.296;2022-08-19T05:27:16;94503.09;;;24.45;71.22
12795;BME280;6461;42.666;23.296;2022-08-19T05:29:43;94501.56;;;24.47;71.38
12795;BME280;6461;42.666;23.296;2022-08-19T05:32:09;94497.41;;;24.57;71.20
12795;BME280;6461;42.666;23.296;2022-08-19T05:34:37;94498.56;;;24.63;70.21
12795;BME280;6461;42.666;23.296;2022-08-19T05:37:06;94498.56;;;24.70;69.87
12795;BME280;6461;42.666;23.296;2022-08-19T05:39:34;94500.13;;;24.74;70.56
12795;BME280;6461;42.666;23.296;2022-08-19T05:42:02;94502.50;;;24.86;69.24
12795;BME280;6461;42.666;23.296;2022-08-19T05:44:29;94502.88;;;24.95;69.18
12795;BME280;6461;42.666;23.296;2022-08-19T05:46:57;94497.94;;;25.08;67.81
12795;BME280;6461;42.666;23.296;2022-08-19T05:49:23;94502.53;;;25.18;67.20
12795;BME280;6461;42.666;23.296;2022-08-19T05:51:50;94499.47;;;25.27;67.15
12795;BME280;6461;42.666;23.296;2022-08-19T05:54:19;94499.09;;;25.39;66.86
12795;BME280;6461;42.666;23.296;2022-08-19T05:56:46;94499.50;;;25.51;65.25
12795;BME280;6461;42.666;23.296;2022-08-19T05:59:13;94511.78;;;25.63;65.17
12795;BME280;6461;42.666;23.296;2022-08-19T06:01:41;94505.66;;;25.76;63.62
12795;BME280;6461;42.666;23.296;2022-08-19T06:04:08;94508.69;;;25.96;62.49
12795;BME280;6461;42.666;23.296;2022-08-19T06:06:35;94510.22;;;25.97;62.25
12795;BME280;6461;42.666;23.296;2022-08-19T06:09:05;94507.53;;;26.15;60.85
12795;BME280;6461;42.666;23.296;2022-08-19T06:11:34;94510.91;;;26.33;60.17
12795;BME280;6461;42.666;23.296;2022-08-19T06:14:03;94503.91;;;26.56;58.27
12795;BME280;6461;42.666;23.296;2022-08-19T06:16:30;94514.25;;;26.76;57.50
12795;BME280;6461;42.666;23.296;2022-08-19T06:18:57;94511.09;;;26.91;56.66
12795;BME280;6461;42.666;23.296;2022-08-19T06:21:26;94464.63;;;26.66;56.15
12795;BME280;6461;42.666;23.296;2022-08-19T06:23:53;94506.66;;;27.22;55.97
12795;BME280;6461;42.666;23.296;2022-08-19T06:26:20;94506.13;;;27.45;55.70
12795;BME280;6461;42.666;23.296;2022-08-19T06:28:48;94505.63;;;27.64;55.29
12795;BME280;6461;42.666;23.296;2022-08-19T06:31:16;94508.25;;;27.71;55.22
12795;BME280;6461;42.666;23.296;2022-08-19T06:33:42;94508.41;;;27.94;54.60
12795;BME280;6461;42.666;23.296;2022-08-19T06:36:15;94514.56;;;28.01;54.37
12795;BME280;6461;42.666;23.296;2022-08-19T06:38:42;94510.06;;;28.25;52.78
12795;BME280;6461;42.666;23.296;2022-08-19T06:41:09;94512.56;;;28.43;51.71
12795;BME280;6461;42.666;23.296;2022-08-19T06:43:36;94516.66;;;28.54;51.65
12795;BME280;6461;42.666;23.296;2022-08-19T06:46:04;94514.63;;;28.65;51.13
12795;BME280;6461;42.666;23.296;2022-08-19T06:48:36;94510.94;;;28.82;50.56
12795;BME280;6461;42.666;23.296;2022-08-19T06:51:03;94510.31;;;29.02;50.25
12795;BME280;6461;42.666;23.296;2022-08-19T06:53:30;94512.47;;;29.14;49.58
12795;BME280;6461;42.666;23.296;2022-08-19T06:55:57;94518.13;;;29.26;49.12
12795;BME280;6461;42.666;23.296;2022-08-19T06:58:27;94515.88;;;29.44;48.65
12795;BME280;6461;42.666;23.296;2022-08-19T07:00:53;94507.16;;;29.60;48.25
12795;BME280;6461;42.666;23.296;2022-08-19T07:03:21;94516.19;;;29.77;47.86
12795;BME280;6461;42.666;23.296;2022-08-19T07:05:48;94515.88;;;29.94;47.67
12795;BME280;6461;42.666;23.296;2022-08-19T07:08:14;94515.22;;;30.10;47.45
12795;BME280;6461;42.666;23.296;2022-08-19T07:10:44;94522.28;;;30.27;47.25
12795;BME280;6461;42.666;23.296;2022-08-19T07:13:11;94521.19;;;30.44;46.63
12795;BME280;6461;42.666;23.296;2022-08-19T07:15:38;94516.81;;;30.70;45.55
12795;BME280;6461;42.666;23.296;2022-08-19T07:18:04;94524.25;;;30.85;44.77
12795;BME280;6461;42.666;23.296;2022-08-19T07:20:32;94524.25;;;30.85;45.02
12795;BME280;6461;42.666;23.296;2022-08-19T07:22:59;94526.53;;;31.07;44.42
12795;BME280;6461;42.666;23.296;2022-08-19T07:25:25;94520.63;;;31.12;44.49
12795;BME280;6461;42.666;23.296;2022-08-19T07:27:52;94525.41;;;31.40;43.47
12795;BME280;6461;42.666;23.296;2022-08-19T07:30:18;94521.63;;;31.53;43.05
12795;BME280;6461;42.666;23.296;2022-08-19T07:32:47;94523.94;;;31.71;42.76
12795;BME280;6461;42.666;23.296;2022-08-19T07:35:15;94515.75;;;31.87;42.20
12795;BME280;6461;42.666;23.296;2022-08-19T07:37:45;94516.13;;;32.05;41.35
12795;BME280;6461;42.666;23.296;2022-08-19T07:40:12;94518.47;;;32.19;41.21
12795;BME280;6461;42.666;23.296;2022-08-19T07:42:39;94516.72;;;32.41;40.54
12795;BME280;6461;42.666;23.296;2022-08-19T07:45:06;94514.41;;;32.56;40.08
12795;BME280;6461;42.666;23.296;2022-08-19T07:47:33;94505.16;;;32.54;39.35
12795;BME280;6461;42.666;23.296;2022-08-19T07:50:00;94520.03;;;31.56;40.59
12795;BME280;6461;42.666;23.296;2022-08-19T07:52:29;94519.00;;;31.98;40.47
12795;BME280;6461;42.666;23.296;2022-08-19T07:54:57;94521.19;;;32.19;40.31
12795;BME280;6461;42.666;23.296;2022-08-19T07:57:25;94519.50;;;32.25;39.67
12795;BME280;6461;42.666;23.296;2022-08-19T07:59:51;94520.31;;;32.67;39.26
12795;BME280;6461;42.666;23.296;2022-08-19T08:02:18;94524.59;;;32.81;38.66
12795;BME280;6461;42.666;23.296;2022-08-19T08:04:44;94522.47;;;32.60;38.86
12795;BME280;6461;42.666;23.296;2022-08-19T08:07:28;94513.03;;;32.64;39.07
12795;BME280;6461;42.666;23.296;2022-08-19T08:10:14;94512.03;;;32.99;38.50
12795;BME280;6461;42.666;23.296;2022-08-19T08:12:40;94512.94;;;33.34;37.70
12795;BME280;6461;42.666;23.296;2022-08-19T08:15:08;94515.91;;;33.52;36.97
12795;BME280;6461;42.666;23.296;2022-08-19T08:17:35;94517.41;;;33.53;36.67
12795;BME280;6461;42.666;23.296;2022-08-19T08:20:02;94506.91;;;33.89;35.84
12795;BME280;6461;42.666;23.296;2022-08-19T08:22:32;94511.06;;;34.28;34.36
12795;BME280;6461;42.666;23.296;2022-08-19T08:25:18;94509.53;;;34.61;33.72
12795;BME280;6461;42.666;23.296;2022-08-19T08:27:45;94507.69;;;34.80;33.92
12795;BME280;6461;42.666;23.296;2022-08-19T08:30:13;94502.41;;;35.07;32.77
12795;BME280;6461;42.666;23.296;2022-08-19T08:32:40;94506.78;;;35.35;32.60
12795;BME280;6461;42.666;23.296;2022-08-19T08:35:08;94502.81;;;35.58;32.22
12795;BME280;6461;42.666;23.296;2022-08-19T08:37:35;94503.00;;;35.73;32.70
12795;BME280;6461;42.666;23.296;2022-08-19T08:40:03;94496.81;;;35.99;31.55
12795;BME280;6461;42.666;23.296;2022-08-19T08:42:34;94494.13;;;36.17;31.24
12795;BME280;6461;42.666;23.296;2022-08-19T08:45:03;94497.47;;;36.31;29.31
12795;BME280;6461;42.666;23.296;2022-08-19T08:47:36;94495.38;;;36.53;28.85
12795;BME280;6461;42.666;23.296;2022-08-19T08:50:05;94498.38;;;36.82;28.04
12795;BME280;6461;42.666;23.296;2022-08-19T08:52:33;94495.47;;;36.95;26.94
12795;BME280;6461;42.666;23.296;2022-08-19T08:55:03;94491.44;;;37.23;26.13
12795;BME280;6461;42.666;23.296;2022-08-19T08:57:35;94488.66;;;37.41;25.90
12795;BME280;6461;42.666;23.296;2022-08-19T09:00:05;94488.69;;;37.64;26.89
12795;BME280;6461;42.666;23.296;2022-08-19T09:02:32;94483.47;;;37.43;26.07
12795;BME280;6461;42.666;23.296;2022-08-19T09:04:59;94485.88;;;37.74;25.73
12795;BME280;6461;42.666;23.296;2022-08-19T09:07:32;94482.31;;;37.91;24.50
12795;BME280;6461;42.666;23.296;2022-08-19T09:10:02;94480.97;;;38.10;25.15
12795;BME280;6461;42.666;23.296;2022-08-19T09:12:31;94481.94;;;38.22;24.94
12795;BME280;6461;42.666;23.296;2022-08-19T09:15:07;94479.69;;;38.44;25.23
12795;BME280;6461;42.666;23.296;2022-08-19T09:17:34;94475.63;;;38.54;24.30
12795;BME280;6461;42.666;23.296;2022-08-19T09:20:04;94472.66;;;38.43;24.54
12795;BME280;6461;42.666;23.296;2022-08-19T09:22:33;94470.41;;;37.71;24.01
12795;BME280;6461;42.666;23.296;2022-08-19T09:25:00;94473.13;;;37.71;23.93
12795;BME280;6461;42.666;23.296;2022-08-19T09:27:27;94475.03;;;38.35;22.97
12795;BME280;6461;42.666;23.296;2022-08-19T09:29:54;94473.25;;;38.62;23.01
12795;BME280;6461;42.666;23.296;2022-08-19T09:32:22;94465.41;;;38.55;23.91
12795;BME280;6461;42.666;23.296;2022-08-19T09:34:50;94469.22;;;38.72;23.22
12795;BME280;6461;42.666;23.296;2022-08-19T09:37:19;94460.50;;;39.02;22.89
12795;BME280;6461;42.666;23.296;2022-08-19T09:39:46;94468.84;;;39.08;22.80
12795;BME280;6461;42.666;23.296;2022-08-19T09:42:12;94459.56;;;39.20;22.16
12795;BME280;6461;42.666;23.296;2022-08-19T09:44:39;94459.38;;;38.80;21.94
12795;BME280;6461;42.666;23.296;2022-08-19T09:47:06;94454.63;;;38.66;21.94
12795;BME280;6461;42.666;23.296;2022-08-19T09:49:34;94457.97;;;38.70;22.14
12795;BME280;6461;42.666;23.296;2022-08-19T09:52:01;94452.28;;;38.73;22.07
12795;BME280;6461;42.666;23.296;2022-08-19T09:54:28;94456.53;;;38.89;21.55
12795;BME280;6461;42.666;23.296;2022-08-19T09:56:54;94456.25;;;39.16;21.48
12795;BME280;6461;42.666;23.296;2022-08-19T09:59:21;94452.59;;;39.39;21.53
12795;BME280;6461;42.666;23.296;2022-08-19T10:01:48;94451.84;;;39.73;20.47
12795;BME280;6461;42.666;23.296;2022-08-19T10:04:16;94442.28;;;40.04;19.99
12795;BME280;6461;42.666;23.296;2022-08-19T10:06:44;94443.38;;;40.12;20.55
12795;BME280;6461;42.666;23.296;2022-08-19T10:09:13;94441.00;;;40.25;19.74
12795;BME280;6461;42.666;23.296;2022-08-19T10:11:40;94429.28;;;40.24;19.65
12795;BME280;6461;42.666;23.296;2022-08-19T10:14:07;94440.88;;;40.54;20.32
12795;BME280;6461;42.666;23.296;2022-08-19T10:16:35;94420.94;;;40.90;19.95
12795;BME280;6461;42.666;23.296;2022-08-19T10:19:04;94431.28;;;41.01;19.37
12795;BME280;6461;42.666;23.296;2022-08-19T10:21:31;94429.06;;;41.05;19.24
12795;BME280;6461;42.666;23.296;2022-08-19T10:24:01;94430.03;;;41.28;19.48
12795;BME280;6461;42.666;23.296;2022-08-19T10:26:30;94430.72;;;41.59;18.21
12795;BME280;6461;42.666;23.296;2022-08-19T10:28:57;94423.63;;;41.89;18.21
12795;BME280;6461;42.666;23.296;2022-08-19T10:31:24;94421.13;;;41.97;17.88
12795;BME280;6461;42.666;23.296;2022-08-19T10:33:51;94418.81;;;41.84;18.65
12795;BME280;6461;42.666;23.296;2022-08-19T10:36:23;94416.31;;;41.86;18.00
12795;BME280;6461;42.666;23.296;2022-08-19T10:38:50;94418.13;;;41.95;17.96
12795;BME280;6461;42.666;23.296;2022-08-19T10:41:20;94414.38;;;41.98;18.25
12795;BME280;6461;42.666;23.296;2022-08-19T10:43:50;94412.25;;;42.24;17.78
12795;BME280;6461;42.666;23.296;2022-08-19T10:46:17;94413.50;;;42.34;17.78
12795;BME280;6461;42.666;23.296;2022-08-19T10:48:44;94412.78;;;42.39;17.89
12795;BME280;6461;42.666;23.296;2022-08-19T10:51:11;94412.03;;;42.39;17.58
12795;BME280;6461;42.666;23.296;2022-08-19T10:53:55;94407.06;;;42.65;17.46
12795;BME280;6461;42.666;23.296;2022-08-19T10:56:24;94407.84;;;42.82;17.38
12795;BME280;6461;42.666;23.296;2022-08-19T10:59:08;94404.59;;;42.95;17.20
12795;BME280;6461;42.666;23.296;2022-08-19T11:01:36;94400.81;;;42.98;17.34
12795;BME280;6461;42.666;23.296;2022-08-19T11:04:04;94399.06;;;42.89;16.87
12795;BME280;6461;42.666;23.296;2022-08-19T11:06:33;94413.88;;;42.92;17.54
12795;BME280;6461;42.666;23.296;2022-08-19T11:09:00;94408.06;;;42.73;17.71
12795;BME280;6461;42.666;23.296;2022-08-19T11:11:28;94406.38;;;42.87;17.29
12795;BME280;6461;42.666;23.296;2022-08-19T11:13:55;94400.56;;;42.96;17.75
12795;BME280;6461;42.666;23.296;2022-08-19T11:16:22;94397.81;;;43.07;17.07
12795;BME280;6461;42.666;23.296;2022-08-19T11:18:50;94394.53;;;43.03;17.48
12795;BME280;6461;42.666;23.296;2022-08-19T11:21:18;94404.59;;;43.17;16.97
12795;BME280;6461;42.666;23.296;2022-08-19T11:23:46;94397.03;;;43.23;17.30
12795;BME280;6461;42.666;23.296;2022-08-19T11:26:13;94395.00;;;43.23;17.58
12795;BME280;6461;42.666;23.296;2022-08-19T11:28:41;94403.81;;;43.44;17.08
12795;BME280;6461;42.666;23.296;2022-08-19T11:31:11;94389.44;;;43.57;16.83
12795;BME280;6461;42.666;23.296;2022-08-19T11:33:38;94391.94;;;43.71;17.03
12795;BME280;6461;42.666;23.296;2022-08-19T11:36:04;94384.59;;;43.79;17.18
12795;BME280;6461;42.666;23.296;2022-08-19T11:38:32;94374.66;;;43.49;17.17
12795;BME280;6461;42.666;23.296;2022-08-19T11:41:02;94382.16;;;43.65;17.43
12795;BME280;6461;42.666;23.296;2022-08-19T11:43:29;94364.97;;;43.88;16.77
12795;BME280;6461;42.666;23.296;2022-08-19T11:45:57;94377.53;;;43.89;16.88
12795;BME280;6461;42.666;23.296;2022-08-19T11:48:24;94372.25;;;43.91;17.12
12795;BME280;6461;42.666;23.296;2022-08-19T11:50:51;94370.19;;;44.08;16.44
12795;BME280;6461;42.666;23.296;2022-08-19T11:53:20;94372.19;;;44.13;15.94
12795;BME280;6461;42.666;23.296;2022-08-19T11:55:47;94370.56;;;44.29;16.73
12795;BME280;6461;42.666;23.296;2022-08-19T11:58:14;94373.53;;;44.37;16.28
12795;BME280;6461;42.666;23.296;2022-08-19T12:00:41;94369.16;;;44.52;16.70
12795;BME280;6461;42.666;23.296;2022-08-19T12:03:12;94362.41;;;44.48;15.78
12795;BME280;6461;42.666;23.296;2022-08-19T12:05:38;94358.88;;;44.06;16.24
12795;BME280;6461;42.666;23.296;2022-08-19T12:08:06;94354.59;;;44.05;16.39
12795;BME280;6461;42.666;23.296;2022-08-19T12:10:33;94353.06;;;43.36;16.54
12795;BME280;6461;42.666;23.296;2022-08-19T12:13:01;94346.88;;;43.82;16.31
12795;BME280;6461;42.666;23.296;2022-08-19T12:15:27;94341.84;;;43.80;16.46
12795;BME280;6461;42.666;23.296;2022-08-19T12:17:55;94341.91;;;44.21;16.16
12795;BME280;6461;42.666;23.296;2022-08-19T12:20:24;94338.94;;;43.45;17.13
12795;BME280;6461;42.666;23.296;2022-08-19T12:22:51;94327.75;;;43.84;17.24
12795;BME280;6461;42.666;23.296;2022-08-19T12:25:18;94325.34;;;44.15;16.90
12795;BME280;6461;42.666;23.296;2022-08-19T12:27:44;94322.72;;;44.29;16.10
12795;BME280;6461;42.666;23.296;2022-08-19T12:30:12;94315.63;;;44.39;16.06
12795;BME280;6461;42.666;23.296;2022-08-19T12:32:39;94321.47;;;44.30;17.03
12795;BME280;6461;42.666;23.296;2022-08-19T12:35:06;94309.41;;;44.62;15.68
12795;BME280;6461;42.666;23.296;2022-08-19T12:37:35;94273.22;;;44.55;15.65
12795;BME280;6461;42.666;23.296;2022-08-19T12:40:02;94313.34;;;44.72;16.21
12795;BME280;6461;42.666;23.296;2022-08-19T12:42:29;94313.19;;;44.65;15.91
12795;BME280;6461;42.666;23.296;2022-08-19T12:44:55;94309.56;;;44.40;15.88
12795;BME280;6461;42.666;23.296;2022-08-19T12:47:22;94307.38;;;44.28;16.44
12795;BME280;6461;42.666;23.296;2022-08-19T12:49:49;94301.34;;;44.64;15.97
12795;BME280;6461;42.666;23.296;2022-08-19T12:52:16;94305.56;;;44.71;15.74
12795;BME280;6461;42.666;23.296;2022-08-19T12:54:47;94299.47;;;44.78;15.33
12795;BME280;6461;42.666;23.296;2022-08-19T12:57:14;94304.53;;;44.44;16.37
12795;BME280;6461;42.666;23.296;2022-08-19T12:59:41;94298.00;;;44.42;15.42
12795;BME280;6461;42.666;23.296;2022-08-19T13:02:08;94291.66;;;44.47;16.09
12795;BME280;6461;42.666;23.296;2022-08-19T13:04:34;94295.88;;;44.18;16.00